createdAt,value
2018-05-02T00:00:22.496Z,4.05
2018-05-02T00:00:55.021Z,3.83
2018-05-02T00:01:28.314Z,3.70
2018-05-02T00:02:01.893Z,4.00
2018-05-02T00:02:35.007Z,4.20
2018-05-02T00:03:07.582Z,3.80
2018-05-02T00:03:40.110Z,3.87
2018-05-02T00:04:12.618Z,4.50
2018-05-02T00:04:45.160Z,3.97
2018-05-02T00:05:58.227Z,4.05
2018-05-02T00:06:31.495Z,4.60
2018-05-02T00:07:05.456Z,4.60
2018-05-02T00:07:38.989Z,4.20
2018-05-02T00:08:14.215Z,4.40
2018-05-02T00:08:46.737Z,4.22
2018-05-02T00:09:21.629Z,5.18
2018-05-02T00:09:56.324Z,5.37
2018-05-02T00:10:30.389Z,5.10
2018-05-02T00:11:02.919Z,4.43
2018-05-02T00:11:36.233Z,4.30
2018-05-02T00:12:08.763Z,4.95
2018-05-02T00:12:41.301Z,4.78
2018-05-02T00:13:14.575Z,4.55
2018-05-02T00:13:48.281Z,4.05
2018-05-02T00:14:21.595Z,4.18
2018-05-02T00:14:54.256Z,4.15
2018-05-02T00:15:26.750Z,4.32
2018-05-02T00:16:00.393Z,4.70
2018-05-02T00:16:34.849Z,5.20
2018-05-02T00:17:07.909Z,5.05
2018-05-02T00:17:41.062Z,5.35
2018-05-02T00:18:13.596Z,4.35
2018-05-02T00:18:46.870Z,4.50
2018-05-02T00:19:20.289Z,4.87
2018-05-02T00:19:52.823Z,4.40
2018-05-02T00:20:26.108Z,4.55
2018-05-02T00:20:59.515Z,5.10
2018-05-02T00:21:32.293Z,5.05
2018-05-02T00:22:04.837Z,4.53
2018-05-02T00:22:38.133Z,4.28
2018-05-02T00:23:13.216Z,4.15
2018-05-02T00:23:45.727Z,5.00
2018-05-02T00:24:19.193Z,4.90
2018-05-02T00:24:51.703Z,4.18
2018-05-02T00:25:24.220Z,4.50
2018-05-02T00:25:56.719Z,4.82
2018-05-02T00:26:29.279Z,4.37
2018-05-02T00:27:01.783Z,4.95
2018-05-02T00:27:35.043Z,5.05
2018-05-02T00:28:07.580Z,5.18
2018-05-02T00:28:41.503Z,5.18
2018-05-02T00:29:15.200Z,5.72
2018-05-02T00:29:47.760Z,4.40
2018-05-02T00:30:20.318Z,5.00
2018-05-02T00:30:52.826Z,5.40
2018-05-02T00:31:28.179Z,5.60
2018-05-02T00:32:05.360Z,5.15
2018-05-02T00:32:38.836Z,4.60
2018-05-02T00:33:11.380Z,4.50
2018-05-02T00:33:44.692Z,4.30
2018-05-02T00:34:18.681Z,4.50
2018-05-02T00:34:51.771Z,4.55
2018-05-02T00:35:26.112Z,5.55
2018-05-02T00:35:59.602Z,5.15
2018-05-02T00:36:34.033Z,4.53
2018-05-02T00:37:08.760Z,4.93
2018-05-02T00:37:42.246Z,4.53
2018-05-02T00:38:14.834Z,4.62
2018-05-02T00:38:48.868Z,4.62
2018-05-02T00:39:21.473Z,4.28
2018-05-02T00:39:54.641Z,4.47
2018-05-02T00:40:27.168Z,4.37
2018-05-02T00:41:00.849Z,4.32
2018-05-02T00:41:33.363Z,4.70
2018-05-02T00:42:06.824Z,4.43
2018-05-02T00:42:41.420Z,4.30
2018-05-02T00:43:13.932Z,4.93
2018-05-02T00:43:46.451Z,6.45
2018-05-02T00:44:18.982Z,4.35
2018-05-02T00:44:51.493Z,4.25
2018-05-02T00:45:24.759Z,4.72
2018-05-02T00:45:58.080Z,4.25
2018-05-02T00:46:30.605Z,5.10
2018-05-02T00:47:03.118Z,5.37
2018-05-02T00:47:35.629Z,5.12
2018-05-02T00:48:08.147Z,4.12
2018-05-02T00:48:52.375Z,4.43
2018-05-02T00:49:24.883Z,4.65
2018-05-02T00:49:57.600Z,4.55
2018-05-02T00:50:30.117Z,3.95
2018-05-02T00:51:02.680Z,4.25
2018-05-02T00:51:35.205Z,4.53
2018-05-02T00:52:08.561Z,4.70
2018-05-02T00:52:41.085Z,4.80
2018-05-02T00:53:13.588Z,4.70
2018-05-02T00:53:46.162Z,4.62
2018-05-02T00:54:18.673Z,4.10
2018-05-02T00:54:51.909Z,4.72
2018-05-02T00:55:24.571Z,4.45
2018-05-02T00:55:58.960Z,4.40
2018-05-02T00:56:31.489Z,4.57
2018-05-02T00:57:04.885Z,4.50
2018-05-02T00:57:37.387Z,4.62
2018-05-02T00:58:09.956Z,4.72
2018-05-02T00:58:42.612Z,4.47
2018-05-02T00:59:15.171Z,4.35
2018-05-02T00:59:47.693Z,5.20
2018-05-02T01:00:20.203Z,5.07
2018-05-02T01:00:52.707Z,5.65
2018-05-02T01:01:25.448Z,5.30
2018-05-02T01:01:57.999Z,4.32
2018-05-02T01:02:31.569Z,5.22
2018-05-02T01:03:04.126Z,5.75
2018-05-02T01:03:36.637Z,4.68
2018-05-02T01:04:09.191Z,4.70
2018-05-02T01:04:41.724Z,5.10
2018-05-02T01:05:14.328Z,4.62
2018-05-02T01:05:46.850Z,5.00
2018-05-02T01:06:19.369Z,4.93
2018-05-02T01:06:51.894Z,4.62
2018-05-02T01:07:24.421Z,4.35
2018-05-02T01:07:57.706Z,4.57
2018-05-02T01:08:30.364Z,6.12
2018-05-02T01:09:03.635Z,4.55
2018-05-02T01:09:36.156Z,4.93
2018-05-02T01:10:08.937Z,3.95
2018-05-02T01:10:41.585Z,4.80
2018-05-02T01:11:14.933Z,5.00
2018-05-02T01:11:47.491Z,4.75
2018-05-02T01:12:20.046Z,5.37
2018-05-02T01:12:52.608Z,4.70
2018-05-02T01:13:25.161Z,4.95
2018-05-02T01:13:57.660Z,4.80
2018-05-02T01:14:30.943Z,4.18
2018-05-02T01:15:03.470Z,4.80
2018-05-02T01:15:36.200Z,4.40
2018-05-02T01:16:08.717Z,4.35
2018-05-02T01:16:41.221Z,4.65
2018-05-02T01:17:13.737Z,4.62
2018-05-02T01:17:46.249Z,4.78
2018-05-02T01:18:19.025Z,4.47
2018-05-02T01:18:51.524Z,5.18
2018-05-02T01:19:24.055Z,4.30
2018-05-02T01:19:56.595Z,4.15
2018-05-02T01:20:29.171Z,4.55
2018-05-02T01:21:01.724Z,4.62
2018-05-02T01:21:34.233Z,4.53
2018-05-02T01:22:06.731Z,5.82
2018-05-02T01:22:40.025Z,4.45
2018-05-02T01:23:12.551Z,4.50
2018-05-02T01:23:45.072Z,4.72
2018-05-02T01:24:17.579Z,4.40
2018-05-02T01:24:50.106Z,4.50
2018-05-02T01:25:22.608Z,4.80
2018-05-02T01:25:55.117Z,4.90
2018-05-02T01:26:27.626Z,5.00
2018-05-02T01:27:00.234Z,4.60
2018-05-02T01:27:32.748Z,4.82
2018-05-02T01:28:05.260Z,5.03
2018-05-02T01:28:37.774Z,4.50
2018-05-02T01:29:10.435Z,4.62
2018-05-02T01:29:43.004Z,5.10
2018-05-02T01:30:15.537Z,5.40
2018-05-02T01:30:48.108Z,4.55
2018-05-02T01:31:20.615Z,4.57
2018-05-02T01:31:53.121Z,4.50
2018-05-02T01:32:25.632Z,4.40
2018-05-02T01:32:58.145Z,6.15
2018-05-02T01:33:30.652Z,5.10
2018-05-02T01:34:03.204Z,4.72
2018-05-02T01:34:35.723Z,4.70
2018-05-02T01:35:08.226Z,4.40
2018-05-02T01:35:40.966Z,5.50
2018-05-02T01:36:13.467Z,4.60
2018-05-02T01:36:45.993Z,4.82
2018-05-02T01:37:18.507Z,5.28
2018-05-02T01:37:51.019Z,4.72
2018-05-02T01:38:23.543Z,5.12
2018-05-02T01:38:56.046Z,4.97
2018-05-02T01:39:28.547Z,4.80
2018-05-02T01:40:01.081Z,5.28
2018-05-02T01:40:33.600Z,4.80
2018-05-02T01:41:06.872Z,4.68
2018-05-02T01:41:39.740Z,4.70
2018-05-02T01:42:13.066Z,4.95
2018-05-02T01:42:45.631Z,4.57
2018-05-02T01:43:18.197Z,4.20
2018-05-02T01:43:50.733Z,5.07
2018-05-02T01:44:23.240Z,4.22
2018-05-02T01:44:55.764Z,4.80
2018-05-02T01:45:28.409Z,4.62
2018-05-02T01:46:00.926Z,4.68
2018-05-02T01:46:33.443Z,4.70
2018-05-02T01:47:05.966Z,4.80
2018-05-02T01:47:38.505Z,4.45
2018-05-02T01:48:11.007Z,4.60
2018-05-02T01:48:55.626Z,4.95
2018-05-02T01:49:28.131Z,5.35
2018-05-02T01:50:00.754Z,4.60
2018-05-02T01:50:33.343Z,5.05
2018-05-02T01:51:05.841Z,4.90
2018-05-02T01:51:39.253Z,5.20
2018-05-02T01:52:11.765Z,5.75
2018-05-02T01:52:44.284Z,4.90
2018-05-02T01:53:16.787Z,4.55
2018-05-02T01:53:49.316Z,4.60
2018-05-02T01:54:21.829Z,4.85
2018-05-02T01:54:54.367Z,4.65
2018-05-02T01:55:26.877Z,5.20
2018-05-02T01:55:59.429Z,4.97
2018-05-02T01:56:32.783Z,4.55
2018-05-02T01:57:06.024Z,5.10
2018-05-02T01:57:38.685Z,4.87
2018-05-02T01:58:11.187Z,5.25
2018-05-02T01:58:43.692Z,5.10
2018-05-02T01:59:16.198Z,4.20
2018-05-02T01:59:48.705Z,5.05
2018-05-02T02:00:21.984Z,5.28
2018-05-02T02:00:54.491Z,4.80
2018-05-02T02:01:27.018Z,4.82
2018-05-02T02:02:00.301Z,4.87
2018-05-02T02:02:32.836Z,4.53
2018-05-02T02:03:05.352Z,4.35
2018-05-02T02:03:37.916Z,4.70
2018-05-02T02:04:10.497Z,5.62
2018-05-02T02:04:43.010Z,5.70
2018-05-02T02:05:16.283Z,4.93
2018-05-02T02:05:48.800Z,4.57
2018-05-02T02:06:21.329Z,4.57
2018-05-02T02:06:53.896Z,4.65
2018-05-02T02:07:26.395Z,4.47
2018-05-02T02:07:58.900Z,4.72
2018-05-02T02:08:31.400Z,5.03
2018-05-02T02:09:03.917Z,4.70
2018-05-02T02:09:36.426Z,6.30
2018-05-02T02:10:08.945Z,4.60
2018-05-02T02:10:41.456Z,4.10
2018-05-02T02:11:13.956Z,4.45
2018-05-02T02:11:46.460Z,4.60
2018-05-02T02:12:18.987Z,4.85
2018-05-02T02:12:51.504Z,5.35
2018-05-02T02:13:24.072Z,4.55
2018-05-02T02:13:56.640Z,4.75
2018-05-02T02:14:29.158Z,4.47
2018-05-02T02:15:01.673Z,4.40
2018-05-02T02:15:34.350Z,4.62
2018-05-02T02:16:06.889Z,4.25
2018-05-02T02:16:39.418Z,4.90
2018-05-02T02:17:12.704Z,4.53
2018-05-02T02:17:45.264Z,5.45
2018-05-02T02:18:17.798Z,5.20
2018-05-02T02:18:50.445Z,5.00
2018-05-02T02:19:22.954Z,4.85
2018-05-02T02:19:55.672Z,5.05
2018-05-02T02:20:28.221Z,5.18
2018-05-02T02:21:00.748Z,4.75
2018-05-02T02:21:33.302Z,4.45
2018-05-02T02:22:05.820Z,5.30
2018-05-02T02:22:38.343Z,4.75
2018-05-02T02:23:10.861Z,4.45
2018-05-02T02:23:43.384Z,4.53
2018-05-02T02:24:15.896Z,4.53
2018-05-02T02:24:48.412Z,4.30
2018-05-02T02:25:20.914Z,4.18
2018-05-02T02:25:53.415Z,4.10
2018-05-02T02:26:25.936Z,4.45
2018-05-02T02:26:58.436Z,4.78
2018-05-02T02:27:30.955Z,4.43
2018-05-02T02:28:03.466Z,4.15
2018-05-02T02:28:35.988Z,4.55
2018-05-02T02:29:08.497Z,5.18
2018-05-02T02:29:41.005Z,4.20
2018-05-02T02:30:13.566Z,4.43
2018-05-02T02:30:46.068Z,5.03
2018-05-02T02:31:19.349Z,4.55
2018-05-02T02:31:51.840Z,4.43
2018-05-02T02:32:24.382Z,4.28
2018-05-02T02:32:56.897Z,4.35
2018-05-02T02:33:29.420Z,4.37
2018-05-02T02:34:02.708Z,4.87
2018-05-02T02:34:35.222Z,4.20
2018-05-02T02:35:07.736Z,4.65
2018-05-02T02:35:40.245Z,4.60
2018-05-02T02:36:12.771Z,4.37
2018-05-02T02:36:45.281Z,4.35
2018-05-02T02:37:17.789Z,4.25
2018-05-02T02:37:51.202Z,4.37
2018-05-02T02:38:23.943Z,5.07
2018-05-02T02:38:56.456Z,4.55
2018-05-02T02:39:29.005Z,4.72
2018-05-02T02:40:01.537Z,5.10
2018-05-02T02:40:34.050Z,4.53
2018-05-02T02:41:06.553Z,4.37
2018-05-02T02:41:39.071Z,4.60
2018-05-02T02:42:11.570Z,4.25
2018-05-02T02:42:44.080Z,4.05
2018-05-02T02:43:16.584Z,4.65
2018-05-02T02:43:49.091Z,4.65
2018-05-02T02:44:22.758Z,4.40
2018-05-02T02:44:55.311Z,4.57
2018-05-02T02:45:27.856Z,5.05
2018-05-02T02:46:00.401Z,4.40
2018-05-02T02:46:32.913Z,4.55
2018-05-02T02:47:06.179Z,4.68
2018-05-02T02:47:38.762Z,4.80
2018-05-02T02:48:11.271Z,5.00
2018-05-02T02:48:43.859Z,4.90
2018-05-02T02:49:16.577Z,6.70
2018-05-02T02:49:49.269Z,4.40
2018-05-02T02:50:21.794Z,4.95
2018-05-02T02:50:54.393Z,5.25
2018-05-02T02:51:26.895Z,4.37
2018-05-02T02:51:59.494Z,4.40
2018-05-02T02:52:32.035Z,4.90
2018-05-02T02:53:05.308Z,5.25
2018-05-02T02:53:37.816Z,5.07
2018-05-02T02:54:10.344Z,4.90
2018-05-02T02:54:43.649Z,5.05
2018-05-02T02:55:16.191Z,4.50
2018-05-02T02:55:48.706Z,5.30
2018-05-02T02:56:21.205Z,5.28
2018-05-02T02:56:54.515Z,5.95
2018-05-02T02:57:27.008Z,5.93
2018-05-02T02:57:59.513Z,4.87
2018-05-02T02:58:32.794Z,4.40
2018-05-02T02:59:05.443Z,4.65
2018-05-02T02:59:37.936Z,4.50
2018-05-02T03:00:10.461Z,4.72
2018-05-02T03:00:42.994Z,4.78
2018-05-02T03:01:15.525Z,4.82
2018-05-02T03:01:48.809Z,5.35
2018-05-02T03:02:21.326Z,4.72
2018-05-02T03:02:53.892Z,4.40
2018-05-02T03:03:26.399Z,5.10
2018-05-02T03:03:58.924Z,4.90
2018-05-02T03:04:31.433Z,4.80
2018-05-02T03:05:03.957Z,4.55
2018-05-02T03:05:36.464Z,5.25
2018-05-02T03:06:08.967Z,5.00
2018-05-02T03:06:41.506Z,5.35
2018-05-02T03:07:14.159Z,4.60
2018-05-02T03:07:46.665Z,5.03
2018-05-02T03:08:19.957Z,4.95
2018-05-02T03:08:53.247Z,4.12
2018-05-02T03:09:25.774Z,5.57
2018-05-02T03:09:58.306Z,4.80
2018-05-02T03:10:30.977Z,5.40
2018-05-02T03:11:03.742Z,5.28
2018-05-02T03:11:36.261Z,5.07
2018-05-02T03:12:08.820Z,5.97
2018-05-02T03:12:41.332Z,4.65
2018-05-02T03:13:13.843Z,5.75
2018-05-02T03:13:46.348Z,5.05
2018-05-02T03:14:18.847Z,4.70
2018-05-02T03:14:51.359Z,4.70
2018-05-02T03:15:23.864Z,5.20
2018-05-02T03:15:56.427Z,4.70
2018-05-02T03:16:28.934Z,5.43
2018-05-02T03:17:01.449Z,5.25
2018-05-02T03:17:33.991Z,4.80
2018-05-02T03:18:06.505Z,4.65
2018-05-02T03:18:39.007Z,4.78
2018-05-02T03:19:11.503Z,5.20
2018-05-02T03:19:44.028Z,5.12
2018-05-02T03:20:16.521Z,5.70
2018-05-02T03:20:49.023Z,5.50
2018-05-02T03:21:21.604Z,4.60
2018-05-02T03:21:54.885Z,4.60
2018-05-02T03:22:27.400Z,5.15
2018-05-02T03:22:59.912Z,4.20
2018-05-02T03:23:33.189Z,5.22
2018-05-02T03:24:05.708Z,6.18
2018-05-02T03:24:38.255Z,6.03
2018-05-02T03:25:10.756Z,5.07
2018-05-02T03:25:43.270Z,5.00
2018-05-02T03:26:15.789Z,5.55
2018-05-02T03:26:49.067Z,5.82
2018-05-02T03:27:21.589Z,6.12
2018-05-02T03:27:54.150Z,5.78
2018-05-02T03:28:26.710Z,5.12
2018-05-02T03:28:59.218Z,5.20
2018-05-02T03:29:31.751Z,5.35
2018-05-02T03:30:04.260Z,5.37
2018-05-02T03:30:37.523Z,5.25
2018-05-02T03:31:10.042Z,5.55
2018-05-02T03:31:42.553Z,5.12
2018-05-02T03:32:15.052Z,5.30
2018-05-02T03:32:48.320Z,4.80
2018-05-02T03:33:20.851Z,4.93
2018-05-02T03:33:53.384Z,5.75
2018-05-02T03:34:26.011Z,6.32
2018-05-02T03:34:58.539Z,5.82
2018-05-02T03:35:31.071Z,5.43
2018-05-02T03:36:03.783Z,5.50
2018-05-02T03:36:36.296Z,5.10
2018-05-02T03:37:08.801Z,5.40
2018-05-02T03:37:41.310Z,6.25
2018-05-02T03:38:13.820Z,4.97
2018-05-02T03:38:47.129Z,5.30
2018-05-02T03:39:19.643Z,4.75
2018-05-02T03:39:52.147Z,5.18
2018-05-02T03:40:24.657Z,5.07
2018-05-02T03:40:57.166Z,5.73
2018-05-02T03:41:29.693Z,5.20
2018-05-02T03:42:02.200Z,5.00
2018-05-02T03:42:34.707Z,5.35
2018-05-02T03:43:07.261Z,5.72
2018-05-02T03:43:39.776Z,5.25
2018-05-02T03:44:12.298Z,5.65
2018-05-02T03:44:44.826Z,5.30
2018-05-02T03:45:17.336Z,6.22
2018-05-02T03:45:49.930Z,5.55
2018-05-02T03:46:22.443Z,5.32
2018-05-02T03:46:55.121Z,6.05
2018-05-02T03:47:27.626Z,6.18
2018-05-02T03:48:00.136Z,6.50
2018-05-02T03:48:32.649Z,6.03
2018-05-02T03:49:05.177Z,6.57
2018-05-02T03:49:37.789Z,6.12
2018-05-02T03:50:10.305Z,6.35
2018-05-02T03:50:43.070Z,6.55
2018-05-02T03:51:15.832Z,6.00
2018-05-02T03:51:48.343Z,5.95
2018-05-02T03:52:20.868Z,5.35
2018-05-02T03:52:53.439Z,5.37
2018-05-02T03:53:26.040Z,6.03
2018-05-02T03:53:58.551Z,5.37
2018-05-02T03:54:31.061Z,5.85
2018-05-02T03:55:03.590Z,5.70
2018-05-02T03:55:36.277Z,5.75
2018-05-02T03:56:08.915Z,5.90
2018-05-02T03:56:41.425Z,5.32
2018-05-02T03:57:14.040Z,6.07
2018-05-02T03:57:46.602Z,5.40
2018-05-02T03:58:19.111Z,6.20
2018-05-02T03:58:51.624Z,5.65
2018-05-02T03:59:35.943Z,5.30
2018-05-02T04:00:20.146Z,6.20
2018-05-02T04:01:04.349Z,5.85
2018-05-02T04:01:48.639Z,6.30
2018-05-02T04:02:28.403Z,5.95
2018-05-02T04:03:12.728Z,5.93
2018-05-02T04:03:57.737Z,7.10
2018-05-02T04:04:42.259Z,5.90
2018-05-02T04:05:26.516Z,6.28
2018-05-02T04:06:10.980Z,6.75
2018-05-02T04:07:09.999Z,5.65
2018-05-02T04:07:42.556Z,5.45
2018-05-02T04:08:15.829Z,5.03
2018-05-02T04:08:48.360Z,5.00
2018-05-02T04:09:20.929Z,5.65
2018-05-02T04:09:53.446Z,6.60
2018-05-02T04:10:25.978Z,5.45
2018-05-02T04:10:59.250Z,6.20
2018-05-02T04:11:31.773Z,6.10
2018-05-02T04:12:04.354Z,6.15
2018-05-02T04:12:36.869Z,6.53
2018-05-02T04:13:10.145Z,5.68
2018-05-02T04:13:42.660Z,6.30
2018-05-02T04:14:16.225Z,5.47
2018-05-02T04:14:48.747Z,6.12
2018-05-02T04:15:21.359Z,6.18
2018-05-02T04:15:53.869Z,6.53
2018-05-02T04:16:26.374Z,6.05
2018-05-02T04:16:58.895Z,5.80
2018-05-02T04:17:31.407Z,6.15
2018-05-02T04:18:04.081Z,5.80
2018-05-02T04:18:37.786Z,5.82
2018-05-02T04:19:10.256Z,6.37
2018-05-02T04:19:42.768Z,6.18
2018-05-02T04:20:15.275Z,5.60
2018-05-02T04:20:47.792Z,6.57
2018-05-02T04:21:20.295Z,5.55
2018-05-02T04:21:52.816Z,6.60
2018-05-02T04:22:26.120Z,6.00
2018-05-02T04:22:58.689Z,6.20
2018-05-02T04:23:31.220Z,7.07
2018-05-02T04:24:03.729Z,6.30
2018-05-02T04:25:15.188Z,5.72
2018-05-02T04:25:47.754Z,6.07
2018-05-02T04:26:20.317Z,6.45
2018-05-02T04:26:52.880Z,7.60
2018-05-02T04:27:25.406Z,6.90
2018-05-02T04:27:57.927Z,6.78
2018-05-02T04:28:30.570Z,6.00
2018-05-02T04:29:03.145Z,6.65
2018-05-02T04:29:35.685Z,5.95
2018-05-02T04:30:08.225Z,8.10
2018-05-02T04:30:40.731Z,7.75
2018-05-02T04:31:13.278Z,6.78
2018-05-02T04:31:45.789Z,6.45
2018-05-02T04:32:19.440Z,7.45
2018-05-02T04:32:51.993Z,7.57
2018-05-02T04:33:24.515Z,6.78
2018-05-02T04:33:57.444Z,6.65
2018-05-02T04:34:29.997Z,6.28
2018-05-02T04:35:02.516Z,6.45
2018-05-02T04:35:35.136Z,6.18
2018-05-02T04:36:07.653Z,6.57
2018-05-02T04:36:41.296Z,5.80
2018-05-02T04:37:15.282Z,6.15
2018-05-02T04:37:47.796Z,7.05
2018-05-02T04:38:20.411Z,6.47
2018-05-02T04:38:52.989Z,6.10
2018-05-02T04:39:25.534Z,7.57
2018-05-02T04:39:58.035Z,8.30
2018-05-02T04:40:30.559Z,6.87
2018-05-02T04:41:04.226Z,7.57
2018-05-02T04:41:37.539Z,7.53
2018-05-02T04:42:10.230Z,6.47
2018-05-02T04:42:42.747Z,6.25
2018-05-02T04:43:15.254Z,6.68
2018-05-02T04:43:47.793Z,6.60
2018-05-02T04:47:00.033Z,6.45
2018-05-02T04:47:32.553Z,7.47
2018-05-02T04:48:05.070Z,6.40
2018-05-02T04:48:37.573Z,6.60
2018-05-02T04:49:10.075Z,6.82
2018-05-02T04:49:42.622Z,7.40
2018-05-02T04:50:15.168Z,8.13
2018-05-02T04:50:47.675Z,8.07
2018-05-02T04:51:20.237Z,6.70
2018-05-02T04:51:52.803Z,7.20
2018-05-02T04:52:25.540Z,7.10
2018-05-02T04:52:58.051Z,6.80
2018-05-02T04:53:30.655Z,7.05
2018-05-02T04:54:03.145Z,6.43
2018-05-02T04:54:35.725Z,7.55
2018-05-02T04:55:08.256Z,7.50
2018-05-02T04:55:40.759Z,6.80
2018-05-02T04:56:13.263Z,6.80
2018-05-02T04:56:46.594Z,7.25
2018-05-02T04:57:19.133Z,6.20
2018-05-02T04:57:51.675Z,6.97
2018-05-02T04:58:24.212Z,6.45
2018-05-02T04:58:56.709Z,7.25
2018-05-02T04:59:29.373Z,8.02
2018-05-02T05:00:01.932Z,6.90
2018-05-02T05:00:34.482Z,8.02
2018-05-02T05:01:07.182Z,7.43
2018-05-02T05:01:39.693Z,7.30
2018-05-02T05:02:12.516Z,7.15
2018-05-02T05:02:45.029Z,7.70
2018-05-02T05:03:17.756Z,7.47
2018-05-02T05:03:50.461Z,7.95
2018-05-02T05:04:22.982Z,7.22
2018-05-02T05:04:55.548Z,8.07
2018-05-02T05:05:28.053Z,6.60
2018-05-02T05:06:00.599Z,7.53
2018-05-02T05:06:33.172Z,6.70
2018-05-02T05:07:05.741Z,7.53
2018-05-02T05:07:38.272Z,6.93
2018-05-02T05:08:10.803Z,7.15
2018-05-02T05:08:43.383Z,7.22
2018-05-02T05:09:16.060Z,6.95
2018-05-02T05:09:48.750Z,6.28
2018-05-02T05:10:21.486Z,6.37
2018-05-02T05:10:53.992Z,6.40
2018-05-02T05:11:26.551Z,7.35
2018-05-02T05:11:59.432Z,6.05
2018-05-02T05:12:32.135Z,7.07
2018-05-02T05:13:04.723Z,7.53
2018-05-02T05:13:37.271Z,6.80
2018-05-02T05:14:09.775Z,6.25
2018-05-02T05:14:42.510Z,6.75
2018-05-02T05:15:15.075Z,6.62
2018-05-02T05:15:47.581Z,6.32
2018-05-02T05:16:20.104Z,7.18
2018-05-02T05:16:52.624Z,6.30
2018-05-02T05:17:25.336Z,6.40
2018-05-02T05:17:57.840Z,7.03
2018-05-02T05:18:30.463Z,6.50
2018-05-02T05:19:02.996Z,6.57
2018-05-02T05:19:35.538Z,7.22
2018-05-02T05:20:08.100Z,6.55
2018-05-02T05:20:40.597Z,6.35
2018-05-02T05:21:13.101Z,6.28
2018-05-02T05:21:45.651Z,6.22
2018-05-02T05:22:18.167Z,7.12
2018-05-02T05:22:51.472Z,6.55
2018-05-02T05:23:24.132Z,7.60
2018-05-02T05:23:56.641Z,6.47
2018-05-02T05:24:29.192Z,7.05
2018-05-02T05:25:01.710Z,6.00
2018-05-02T05:25:35.014Z,6.62
2018-05-02T05:26:07.554Z,6.25
2018-05-02T05:26:40.087Z,6.07
2018-05-02T05:27:12.600Z,6.60
2018-05-02T05:27:45.151Z,6.95
2018-05-02T05:28:17.748Z,6.93
2018-05-02T05:28:50.276Z,7.20
2018-05-02T05:29:22.770Z,6.80
2018-05-02T05:29:55.264Z,6.50
2018-05-02T05:30:27.777Z,6.97
2018-05-02T05:31:00.353Z,6.25
2018-05-02T05:31:32.908Z,6.80
2018-05-02T05:32:05.420Z,6.72
2018-05-02T05:32:38.047Z,7.90
2018-05-02T05:33:10.611Z,7.10
2018-05-02T05:33:43.120Z,7.53
2018-05-02T05:34:15.643Z,6.20
2018-05-02T05:34:48.212Z,6.05
2018-05-02T05:35:20.896Z,6.65
2018-05-02T05:35:53.430Z,5.90
2018-05-02T05:36:25.939Z,7.65
2018-05-02T05:36:58.494Z,6.20
2018-05-02T05:37:31.020Z,6.12
2018-05-02T05:38:03.555Z,7.10
2018-05-02T05:38:36.853Z,7.68
2018-05-02T05:39:09.503Z,7.50
2018-05-02T05:39:42.880Z,7.85
2018-05-02T05:40:15.486Z,6.95
2018-05-02T05:40:48.066Z,6.90
2018-05-02T05:41:20.619Z,6.15
2018-05-02T05:41:53.137Z,6.75
2018-05-02T05:42:25.736Z,7.47
2018-05-02T05:42:58.280Z,7.75
2018-05-02T05:43:30.853Z,7.80
2018-05-02T05:44:03.374Z,7.68
2018-05-02T05:44:35.910Z,6.93
2018-05-02T05:45:08.758Z,7.20
2018-05-02T05:45:41.488Z,7.68
2018-05-02T05:46:14.273Z,7.72
2018-05-02T05:46:47.758Z,8.15
2018-05-02T05:47:21.044Z,7.32
2018-05-02T05:47:53.635Z,9.30
2018-05-02T05:48:26.369Z,8.23
2018-05-02T05:48:59.662Z,8.60
2018-05-02T05:49:32.224Z,7.60
2018-05-02T05:50:04.755Z,7.95
2018-05-02T05:50:37.284Z,8.25
2018-05-02T05:51:09.774Z,8.10
2018-05-02T05:51:42.291Z,8.70
2018-05-02T05:52:14.805Z,8.60
2018-05-02T05:52:47.526Z,8.02
2018-05-02T05:53:20.068Z,8.40
2018-05-02T05:53:52.740Z,8.13
2018-05-02T05:54:25.289Z,8.32
2018-05-02T05:54:57.793Z,9.40
2018-05-02T05:55:30.361Z,9.10
2018-05-02T05:56:04.028Z,8.50
2018-05-02T05:56:36.535Z,8.27
2018-05-02T05:57:09.077Z,7.10
2018-05-02T05:57:41.592Z,8.93
2018-05-02T05:58:14.869Z,8.43
2018-05-02T05:58:47.409Z,8.50
2018-05-02T05:59:19.989Z,8.82
2018-05-02T05:59:53.286Z,8.57
2018-05-02T06:00:25.908Z,9.40
2018-05-02T06:00:58.453Z,8.60
2018-05-02T06:01:33.972Z,7.60
2018-05-02T06:02:06.497Z,8.90
2018-05-02T06:02:39.049Z,9.57
2018-05-02T06:03:11.562Z,7.87
2018-05-02T06:03:44.079Z,8.82
2018-05-02T06:04:16.593Z,7.87
2018-05-02T06:04:49.109Z,8.55
2018-05-02T06:05:21.719Z,6.55
2018-05-02T06:05:54.480Z,8.63
2018-05-02T06:06:27.155Z,7.85
2018-05-02T06:06:59.676Z,7.15
2018-05-02T06:07:32.236Z,8.70
2018-05-02T06:08:04.789Z,8.75
2018-05-02T06:08:37.320Z,7.93
2018-05-02T06:09:09.821Z,7.80
2018-05-02T06:09:42.500Z,8.07
2018-05-02T06:10:15.017Z,7.87
2018-05-02T06:10:47.629Z,8.32
2018-05-02T06:11:20.257Z,8.02
2018-05-02T06:11:52.776Z,7.95
2018-05-02T06:12:25.320Z,7.87
2018-05-02T06:12:58.597Z,7.97
2018-05-02T06:13:31.213Z,8.13
2018-05-02T06:14:03.748Z,7.60
2018-05-02T06:14:37.033Z,7.82
2018-05-02T06:15:09.540Z,7.60
2018-05-02T06:15:42.282Z,8.90
2018-05-02T06:16:14.813Z,7.90
2018-05-02T06:16:48.331Z,7.72
2018-05-02T06:17:20.894Z,8.40
2018-05-02T06:17:54.406Z,8.10
2018-05-02T06:18:26.987Z,8.45
2018-05-02T06:18:59.510Z,7.72
2018-05-02T06:19:32.040Z,7.87
2018-05-02T06:20:04.556Z,7.70
2018-05-02T06:20:37.074Z,8.30
2018-05-02T06:21:09.593Z,7.90
2018-05-02T06:21:42.108Z,8.00
2018-05-02T06:22:14.666Z,7.68
2018-05-02T06:22:47.943Z,7.60
2018-05-02T06:23:20.477Z,8.73
2018-05-02T06:23:52.985Z,8.75
2018-05-02T06:24:25.512Z,8.73
2018-05-02T06:24:58.806Z,7.87
2018-05-02T06:25:31.351Z,8.57
2018-05-02T06:26:04.044Z,8.57
2018-05-02T06:26:37.304Z,8.52
2018-05-02T06:27:09.815Z,7.30
2018-05-02T06:27:42.377Z,8.07
2018-05-02T06:28:14.887Z,7.75
2018-05-02T06:28:47.730Z,7.40
2018-05-02T06:29:20.709Z,7.75
2018-05-02T06:29:53.247Z,7.65
2018-05-02T06:30:25.776Z,8.18
2018-05-02T06:30:59.047Z,7.72
2018-05-02T06:31:31.571Z,7.87
2018-05-02T06:32:04.081Z,7.50
2018-05-02T06:32:36.597Z,8.23
2018-05-02T06:33:09.699Z,7.62
2018-05-02T06:33:42.232Z,7.12
2018-05-02T06:34:14.800Z,7.75
2018-05-02T06:34:47.316Z,7.75
2018-05-02T06:35:20.609Z,6.97
2018-05-02T06:35:53.140Z,8.13
2018-05-02T06:36:25.655Z,6.95
2018-05-02T06:36:58.184Z,7.80
2018-05-02T06:37:31.510Z,7.82
2018-05-02T06:38:04.004Z,7.75
2018-05-02T06:38:36.580Z,7.70
2018-05-02T06:39:09.255Z,8.52
2018-05-02T06:39:42.660Z,8.38
2018-05-02T06:40:15.237Z,7.82
2018-05-02T06:40:47.751Z,7.95
2018-05-02T06:41:20.332Z,8.20
2018-05-02T06:41:52.861Z,7.70
2018-05-02T06:42:25.367Z,7.30
2018-05-02T06:42:58.643Z,7.97
2018-05-02T06:43:31.243Z,8.85
2018-05-02T06:44:03.738Z,7.97
2018-05-02T06:44:36.264Z,7.45
2018-05-02T06:45:08.789Z,9.10
2018-05-02T06:45:41.526Z,7.32
2018-05-02T06:46:14.441Z,8.10
2018-05-02T06:46:47.743Z,7.80
2018-05-02T06:47:21.328Z,7.10
2018-05-02T06:47:53.854Z,8.23
2018-05-02T06:48:26.760Z,7.55
2018-05-02T06:48:59.491Z,8.18
2018-05-02T06:49:32.024Z,7.75
2018-05-02T06:50:04.541Z,7.12
2018-05-02T06:50:37.067Z,7.90
2018-05-02T06:51:09.579Z,7.20
2018-05-02T06:51:42.095Z,7.90
2018-05-02T06:52:14.598Z,7.72
2018-05-02T06:52:47.871Z,7.55
2018-05-02T06:53:20.394Z,8.00
2018-05-02T06:53:52.926Z,7.90
2018-05-02T06:54:25.457Z,7.40
2018-05-02T06:54:58.766Z,8.07
2018-05-02T06:55:31.315Z,8.00
2018-05-02T06:56:03.862Z,8.45
2018-05-02T06:56:36.382Z,7.15
2018-05-02T06:57:08.911Z,7.95
2018-05-02T06:57:41.434Z,7.72
2018-05-02T06:58:13.947Z,7.68
2018-05-02T06:58:46.478Z,8.55
2018-05-02T06:59:19.069Z,7.72
2018-05-02T06:59:51.651Z,7.80
2018-05-02T07:00:24.214Z,8.25
2018-05-02T07:00:56.795Z,7.70
2018-05-02T07:01:29.529Z,7.55
2018-05-02T07:02:02.060Z,7.97
2018-05-02T07:02:35.345Z,8.35
2018-05-02T07:03:08.162Z,8.50
2018-05-02T07:03:40.686Z,7.43
2018-05-02T07:04:13.311Z,7.53
2018-05-02T07:04:45.827Z,8.70
2018-05-02T07:05:18.523Z,8.45
2018-05-02T07:05:51.076Z,7.45
2018-05-02T07:06:23.642Z,7.47
2018-05-02T07:06:56.151Z,7.37
2018-05-02T07:07:28.670Z,7.72
2018-05-02T07:08:01.189Z,8.02
2018-05-02T07:08:33.871Z,7.72
2018-05-02T07:09:06.407Z,6.85
2018-05-02T07:09:38.903Z,7.95
2018-05-02T07:10:11.412Z,8.13
2018-05-02T07:10:43.929Z,7.60
2018-05-02T07:11:17.268Z,7.40
2018-05-02T07:11:49.855Z,7.60
2018-05-02T07:12:22.363Z,7.18
2018-05-02T07:12:55.582Z,7.87
2018-05-02T07:13:30.469Z,8.13
2018-05-02T07:14:06.903Z,8.00
2018-05-02T07:14:42.371Z,8.20
2018-05-02T07:15:18.949Z,8.15
2018-05-02T07:15:54.502Z,7.45
2018-05-02T07:16:29.811Z,7.60
2018-05-02T07:17:06.251Z,9.43
2018-05-02T07:17:39.538Z,8.10
2018-05-02T07:18:12.078Z,7.72
2018-05-02T07:18:44.596Z,7.95
2018-05-02T07:19:22.108Z,8.20
2018-05-02T07:19:58.234Z,7.05
2018-05-02T07:20:34.490Z,7.35
2018-05-02T07:21:09.030Z,7.70
2018-05-02T07:21:45.441Z,7.50
2018-05-02T07:22:21.120Z,7.45
2018-05-02T07:22:53.632Z,7.10